sensor_id;sensor_type;location;lat;lon;timestamp;temperature;humidity
20376;DHT22;10347;51.828;6.466;2023-05-19T00:02:14;13.40;99.90
20376;DHT22;10347;51.828;6.466;2023-05-19T00:04:40;13.40;99.90
20376;DHT22;10347;51.828;6.466;2023-05-19T00:07:09;13.30;99.90
20376;DHT22;10347;51.828;6.466;2023-05-19T00:09:36;13.30;99.90
20376;DHT22;10347;51.828;6.466;2023-05-19T00:12:02;13.30;99.90
20376;DHT22;10347;51.828;6.466;2023-05-19T00:14:28;13.20;99.90
20376;DHT22;10347;51.828;6.466;2023-05-19T00:16:54;13.20;99.90
20376;DHT22;10347;51.828;6.466;2023-05-19T00:19:20;13.20;99.90
20376;DHT22;10347;51.828;6.466;2023-05-19T00:21:46;13.10;99.90
20376;DHT22;10347;51.828;6.466;2023-05-19T00:24:11;13.10;99.90
20376;DHT22;10347;51.828;6.466;2023-05-19T00:26:37;13.10;99.90
20376;DHT22;10347;51.828;6.466;2023-05-19T00:29:03;13.10;99.90
20376;DHT22;10347;51.828;6.466;2023-05-19T00:31:29;13.00;99.90
20376;DHT22;10347;51.828;6.466;2023-05-19T00:33:56;13.00;99.90
20376;DHT22;10347;51.828;6.466;2023-05-19T00:36:21;13.00;99.90
20376;DHT22;10347;51.828;6.466;2023-05-19T00:38:47;13.00;99.90
20376;DHT22;10347;51.828;6.466;2023-05-19T00:41:12;13.00;99.90
20376;DHT22;10347;51.828;6.466;2023-05-19T00:43:38;12.90;99.90
20376;DHT22;10347;51.828;6.466;2023-05-19T00:46:04;12.90;99.90
20376;DHT22;10347;51.828;6.466;2023-05-19T00:48:29;12.90;99.90
20376;DHT22;10347;51.828;6.466;2023-05-19T00:50:56;12.80;99.90
20376;DHT22;10347;51.828;6.466;2023-05-19T00:53:29;12.80;99.90
20376;DHT22;10347;51.828;6.466;2023-05-19T00:55:56;12.80;99.90
20376;DHT22;10347;51.828;6.466;2023-05-19T00:58:21;12.80;99.90
20376;DHT22;10347;51.828;6.466;2023-05-19T01:00:49;12.70;99.90
20376;DHT22;10347;51.828;6.466;2023-05-19T01:03:15;12.70;99.90
20376;DHT22;10347;51.828;6.466;2023-05-19T01:05:44;12.70;99.90
20376;DHT22;10347;51.828;6.466;2023-05-19T01:08:10;12.70;99.90
20376;DHT22;10347;51.828;6.466;2023-05-19T01:10:36;12.60;99.90
20376;DHT22;10347;51.828;6.466;2023-05-19T01:13:02;12.60;99.90
20376;DHT22;10347;51.828;6.466;2023-05-19T01:15:29;12.50;99.90
20376;DHT22;10347;51.828;6.466;2023-05-19T01:18:04;12.50;99.90
20376;DHT22;10347;51.828;6.466;2023-05-19T01:20:40;12.50;99.90
20376;DHT22;10347;51.828;6.466;2023-05-19T01:23:39;12.50;99.90
20376;DHT22;10347;51.828;6.466;2023-05-19T01:29:06;12.40;99.90
20376;DHT22;10347;51.828;6.466;2023-05-19T01:31:35;12.40;99.90
20376;DHT22;10347;51.828;6.466;2023-05-19T01:34:02;12.30;99.90
20376;DHT22;10347;51.828;6.466;2023-05-19T01:36:30;12.30;99.90
20376;DHT22;10347;51.828;6.466;2023-05-19T01:38:57;12.30;99.90
20376;DHT22;10347;51.828;6.466;2023-05-19T01:41:24;12.20;99.90
20376;DHT22;10347;51.828;6.466;2023-05-19T01:43:50;12.20;99.90
20376;DHT22;10347;51.828;6.466;2023-05-19T01:46:16;12.10;99.90
20376;DHT22;10347;51.828;6.466;2023-05-19T01:48:43;12.10;99.90
20376;DHT22;10347;51.828;6.466;2023-05-19T01:51:09;12.10;99.90
20376;DHT22;10347;51.828;6.466;2023-05-19T01:53:35;12.10;99.90
20376;DHT22;10347;51.828;6.466;2023-05-19T01:56:01;12.10;99.90
20376;DHT22;10347;51.828;6.466;2023-05-19T01:58:47;12.10;99.90
20376;DHT22;10347;51.828;6.466;2023-05-19T02:07:12;12.00;99.90
20376;DHT22;10347;51.828;6.466;2023-05-19T02:09:56;11.90;99.90
20376;DHT22;10347;51.828;6.466;2023-05-19T02:12:36;11.80;99.90
20376;DHT22;10347;51.828;6.466;2023-05-19T02:15:19;11.80;99.90
20376;DHT22;10347;51.828;6.466;2023-05-19T02:17:47;11.80;99.90
20376;DHT22;10347;51.828;6.466;2023-05-19T02:20:15;11.80;99.90
20376;DHT22;10347;51.828;6.466;2023-05-19T02:22:40;11.80;99.90
20376;DHT22;10347;51.828;6.466;2023-05-19T02:25:07;11.80;99.90
20376;DHT22;10347;51.828;6.466;2023-05-19T02:27:37;11.70;99.90
20376;DHT22;10347;51.828;6.466;2023-05-19T02:30:04;11.70;99.90
20376;DHT22;10347;51.828;6.466;2023-05-19T02:32:30;11.70;99.90
20376;DHT22;10347;51.828;6.466;2023-05-19T02:34:56;11.70;99.90
20376;DHT22;10347;51.828;6.466;2023-05-19T02:37:22;11.70;99.90
20376;DHT22;10347;51.828;6.466;2023-05-19T02:39:49;11.70;99.90
20376;DHT22;10347;51.828;6.466;2023-05-19T02:42:15;11.70;99.90
20376;DHT22;10347;51.828;6.466;2023-05-19T02:44:42;11.60;99.90
20376;DHT22;10347;51.828;6.466;2023-05-19T02:47:08;11.60;99.90
20376;DHT22;10347;51.828;6.466;2023-05-19T02:49:34;11.50;99.90
20376;DHT22;10347;51.828;6.466;2023-05-19T02:52:01;11.60;99.90
20376;DHT22;10347;51.828;6.466;2023-05-19T02:54:27;11.50;99.90
20376;DHT22;10347;51.828;6.466;2023-05-19T02:56:52;11.50;99.90
20376;DHT22;10347;51.828;6.466;2023-05-19T02:59:18;11.50;99.90
20376;DHT22;10347;51.828;6.466;2023-05-19T03:01:43;11.40;99.90
20376;DHT22;10347;51.828;6.466;2023-05-19T03:04:09;11.40;99.90
20376;DHT22;10347;51.828;6.466;2023-05-19T03:06:34;11.40;99.90
20376;DHT22;10347;51.828;6.466;2023-05-19T03:09:00;11.20;99.90
20376;DHT22;10347;51.828;6.466;2023-05-19T03:11:26;11.30;99.90
20376;DHT22;10347;51.828;6.466;2023-05-19T03:13:51;11.30;99.90
20376;DHT22;10347;51.828;6.466;2023-05-19T03:16:17;11.30;99.90
20376;DHT22;10347;51.828;6.466;2023-05-19T03:18:43;11.30;99.90
20376;DHT22;10347;51.828;6.466;2023-05-19T03:21:08;11.30;99.90
20376;DHT22;10347;51.828;6.466;2023-05-19T03:23:34;11.20;99.90
20376;DHT22;10347;51.828;6.466;2023-05-19T03:26:00;11.20;99.90
20376;DHT22;10347;51.828;6.466;2023-05-19T03:28:25;11.20;99.90
20376;DHT22;10347;51.828;6.466;2023-05-19T03:30:53;11.20;99.90
20376;DHT22;10347;51.828;6.466;2023-05-19T03:33:19;11.20;99.90
20376;DHT22;10347;51.828;6.466;2023-05-19T03:35:45;11.20;99.90
20376;DHT22;10347;51.828;6.466;2023-05-19T03:38:11;11.20;99.90
20376;DHT22;10347;51.828;6.466;2023-05-19T03:40:36;11.20;99.90
20376;DHT22;10347;51.828;6.466;2023-05-19T03:43:02;11.10;99.90
20376;DHT22;10347;51.828;6.466;2023-05-19T03:45:28;11.10;99.90
20376;DHT22;10347;51.828;6.466;2023-05-19T03:47:53;11.10;99.90
20376;DHT22;10347;51.828;6.466;2023-05-19T03:50:19;11.10;99.90
20376;DHT22;10347;51.828;6.466;2023-05-19T03:52:45;11.10;99.90
20376;DHT22;10347;51.828;6.466;2023-05-19T03:55:12;11.10;99.90
20376;DHT22;10347;51.828;6.466;2023-05-19T03:57:39;11.20;99.90
20376;DHT22;10347;51.828;6.466;2023-05-19T04:00:06;11.20;99.90
20376;DHT22;10347;51.828;6.466;2023-05-19T04:02:32;11.10;99.90
20376;DHT22;10347;51.828;6.466;2023-05-19T04:04:57;11.20;99.90
20376;DHT22;10347;51.828;6.466;2023-05-19T04:07:23;11.20;99.90
20376;DHT22;10347;51.828;6.466;2023-05-19T04:09:49;11.20;99.90
20376;DHT22;10347;51.828;6.466;2023-05-19T04:12:15;11.30;99.90
20376;DHT22;10347;51.828;6.466;2023-05-19T04:14:40;11.20;99.90
20376;DHT22;10347;51.828;6.466;2023-05-19T04:17:06;11.30;99.90
20376;DHT22;10347;51.828;6.466;2023-05-19T04:19:32;11.20;99.90
20376;DHT22;10347;51.828;6.466;2023-05-19T04:21:57;11.20;99.90
20376;DHT22;10347;51.828;6.466;2023-05-19T04:24:23;11.30;99.90
20376;DHT22;10347;51.828;6.466;2023-05-19T04:26:49;11.20;99.90
20376;DHT22;10347;51.828;6.466;2023-05-19T04:29:15;11.30;99.90
20376;DHT22;10347;51.828;6.466;2023-05-19T04:31:43;11.30;99.90
20376;DHT22;10347;51.828;6.466;2023-05-19T04:34:09;11.30;99.90
20376;DHT22;10347;51.828;6.466;2023-05-19T04:36:34;11.30;99.90
20376;DHT22;10347;51.828;6.466;2023-05-19T04:39:01;11.30;99.90
20376;DHT22;10347;51.828;6.466;2023-05-19T04:41:33;11.30;99.90
20376;DHT22;10347;51.828;6.466;2023-05-19T04:43:59;11.30;99.90
20376;DHT22;10347;51.828;6.466;2023-05-19T04:46:25;11.30;99.90
20376;DHT22;10347;51.828;6.466;2023-05-19T04:48:52;11.30;99.90
20376;DHT22;10347;51.828;6.466;2023-05-19T04:51:18;11.30;99.90
20376;DHT22;10347;51.828;6.466;2023-05-19T04:53:44;11.30;99.90
20376;DHT22;10347;51.828;6.466;2023-05-19T04:56:10;11.30;99.90
20376;DHT22;10347;51.828;6.466;2023-05-19T04:58:39;11.30;99.90
20376;DHT22;10347;51.828;6.466;2023-05-19T05:01:05;11.30;99.90
20376;DHT22;10347;51.828;6.466;2023-05-19T05:03:31;11.30;99.90
20376;DHT22;10347;51.828;6.466;2023-05-19T05:05:58;11.30;99.90
20376;DHT22;10347;51.828;6.466;2023-05-19T05:08:24;11.30;99.90
20376;DHT22;10347;51.828;6.466;2023-05-19T05:10:50;11.40;99.90
20376;DHT22;10347;51.828;6.466;2023-05-19T05:13:22;11.40;99.90
20376;DHT22;10347;51.828;6.466;2023-05-19T05:15:48;11.40;99.90
20376;DHT22;10347;51.828;6.466;2023-05-19T05:18:14;11.40;99.90
20376;DHT22;10347;51.828;6.466;2023-05-19T05:20:41;11.40;99.90
20376;DHT22;10347;51.828;6.466;2023-05-19T05:23:08;11.40;99.90
20376;DHT22;10347;51.828;6.466;2023-05-19T05:25:35;11.40;99.90
20376;DHT22;10347;51.828;6.466;2023-05-19T05:28:00;11.50;99.90
20376;DHT22;10347;51.828;6.466;2023-05-19T05:30:29;11.50;99.90
20376;DHT22;10347;51.828;6.466;2023-05-19T05:32:55;11.50;99.90
20376;DHT22;10347;51.828;6.466;2023-05-19T05:35:22;11.50;99.90
20376;DHT22;10347;51.828;6.466;2023-05-19T05:37:48;11.60;99.90
20376;DHT22;10347;51.828;6.466;2023-05-19T05:40:14;11.60;99.90
20376;DHT22;10347;51.828;6.466;2023-05-19T05:42:39;11.60;99.90
20376;DHT22;10347;51.828;6.466;2023-05-19T05:45:05;11.60;99.90
20376;DHT22;10347;51.828;6.466;2023-05-19T05:47:31;11.70;99.90
20376;DHT22;10347;51.828;6.466;2023-05-19T05:49:57;11.70;99.90
20376;DHT22;10347;51.828;6.466;2023-05-19T05:52:27;11.70;99.90
20376;DHT22;10347;51.828;6.466;2023-05-19T05:54:54;11.70;99.90
20376;DHT22;10347;51.828;6.466;2023-05-19T05:57:20;11.80;99.90
20376;DHT22;10347;51.828;6.466;2023-05-19T05:59:46;11.80;99.90
20376;DHT22;10347;51.828;6.466;2023-05-19T06:02:12;11.90;99.90
20376;DHT22;10347;51.828;6.466;2023-05-19T06:04:37;11.90;99.90
20376;DHT22;10347;51.828;6.466;2023-05-19T06:07:03;11.90;99.90
20376;DHT22;10347;51.828;6.466;2023-05-19T06:09:28;11.90;99.90
20376;DHT22;10347;51.828;6.466;2023-05-19T06:11:56;12.00;99.90
20376;DHT22;10347;51.828;6.466;2023-05-19T06:14:22;12.00;99.90
20376;DHT22;10347;51.828;6.466;2023-05-19T06:16:47;12.00;99.90
20376;DHT22;10347;51.828;6.466;2023-05-19T06:19:13;12.10;99.90
20376;DHT22;10347;51.828;6.466;2023-05-19T06:21:38;12.10;99.90
20376;DHT22;10347;51.828;6.466;2023-05-19T06:24:04;12.20;99.90
20376;DHT22;10347;51.828;6.466;2023-05-19T06:26:30;12.20;99.90
20376;DHT22;10347;51.828;6.466;2023-05-19T06:28:55;12.20;99.90
20376;DHT22;10347;51.828;6.466;2023-05-19T06:31:21;12.30;99.90
20376;DHT22;10347;51.828;6.466;2023-05-19T06:33:47;12.40;99.90
20376;DHT22;10347;51.828;6.466;2023-05-19T06:36:12;12.40;99.90
20376;DHT22;10347;51.828;6.466;2023-05-19T06:38:38;12.50;99.90
20376;DHT22;10347;51.828;6.466;2023-05-19T06:41:03;12.50;99.90
20376;DHT22;10347;51.828;6.466;2023-05-19T06:43:29;12.60;99.90
20376;DHT22;10347;51.828;6.466;2023-05-19T06:45:55;12.60;99.90
20376;DHT22;10347;51.828;6.466;2023-05-19T06:48:20;12.70;99.90
20376;DHT22;10347;51.828;6.466;2023-05-19T06:50:46;12.80;99.90
20376;DHT22;10347;51.828;6.466;2023-05-19T06:53:11;12.80;99.90
20376;DHT22;10347;51.828;6.466;2023-05-19T06:55:37;12.90;99.90
20376;DHT22;10347;51.828;6.466;2023-05-19T06:58:02;12.90;99.90
20376;DHT22;10347;51.828;6.466;2023-05-19T07:00:28;13.00;99.90
20376;DHT22;10347;51.828;6.466;2023-05-19T07:02:54;13.00;99.90
20376;DHT22;10347;51.828;6.466;2023-05-19T07:05:19;13.10;99.90
20376;DHT22;10347;51.828;6.466;2023-05-19T07:07:45;13.10;99.90
20376;DHT22;10347;51.828;6.466;2023-05-19T07:10:11;13.20;99.90
20376;DHT22;10347;51.828;6.466;2023-05-19T07:12:36;13.30;99.90
20376;DHT22;10347;51.828;6.466;2023-05-19T07:15:02;13.40;99.90
20376;DHT22;10347;51.828;6.466;2023-05-19T07:17:28;13.40;99.90
20376;DHT22;10347;51.828;6.466;2023-05-19T07:19:53;13.50;99.90
20376;DHT22;10347;51.828;6.466;2023-05-19T07:22:19;13.60;99.90
20376;DHT22;10347;51.828;6.466;2023-05-19T07:24:44;13.70;99.90
20376;DHT22;10347;51.828;6.466;2023-05-19T07:27:10;13.70;99.90
20376;DHT22;10347;51.828;6.466;2023-05-19T07:29:35;13.80;99.90
20376;DHT22;10347;51.828;6.466;2023-05-19T07:32:01;13.80;99.90
20376;DHT22;10347;51.828;6.466;2023-05-19T07:34:27;13.90;99.90
20376;DHT22;10347;51.828;6.466;2023-05-19T07:36:52;14.00;99.90
20376;DHT22;10347;51.828;6.466;2023-05-19T07:39:18;14.00;99.90
20376;DHT22;10347;51.828;6.466;2023-05-19T07:41:43;14.10;99.90
20376;DHT22;10347;51.828;6.466;2023-05-19T07:44:09;14.20;99.90
20376;DHT22;10347;51.828;6.466;2023-05-19T07:46:35;14.30;99.90
20376;DHT22;10347;51.828;6.466;2023-05-19T07:49:02;14.30;99.90
20376;DHT22;10347;51.828;6.466;2023-05-19T07:51:28;14.40;99.90
20376;DHT22;10347;51.828;6.466;2023-05-19T07:53:53;14.40;99.90
20376;DHT22;10347;51.828;6.466;2023-05-19T07:56:19;14.50;99.90
20376;DHT22;10347;51.828;6.466;2023-05-19T07:58:45;14.60;99.90
20376;DHT22;10347;51.828;6.466;2023-05-19T08:01:11;14.70;99.90
20376;DHT22;10347;51.828;6.466;2023-05-19T08:03:36;14.70;99.90
20376;DHT22;10347;51.828;6.466;2023-05-19T08:06:02;14.80;99.90
20376;DHT22;10347;51.828;6.466;2023-05-19T08:08:28;14.90;99.90
20376;DHT22;10347;51.828;6.466;2023-05-19T08:10:53;14.90;99.90
20376;DHT22;10347;51.828;6.466;2023-05-19T08:13:19;15.00;99.90
20376;DHT22;10347;51.828;6.466;2023-05-19T08:15:44;15.10;99.90
20376;DHT22;10347;51.828;6.466;2023-05-19T08:18:10;15.10;99.90
20376;DHT22;10347;51.828;6.466;2023-05-19T08:20:35;15.20;99.90
20376;DHT22;10347;51.828;6.466;2023-05-19T08:23:01;15.20;99.90
20376;DHT22;10347;51.828;6.466;2023-05-19T08:25:27;15.30;99.90
20376;DHT22;10347;51.828;6.466;2023-05-19T08:27:53;15.40;99.90
20376;DHT22;10347;51.828;6.466;2023-05-19T08:30:18;15.40;99.90
20376;DHT22;10347;51.828;6.466;2023-05-19T08:32:44;15.50;99.90
20376;DHT22;10347;51.828;6.466;2023-05-19T08:35:09;15.60;99.90
20376;DHT22;10347;51.828;6.466;2023-05-19T08:37:35;15.70;99.90
20376;DHT22;10347;51.828;6.466;2023-05-19T08:40:03;15.70;99.90
20376;DHT22;10347;51.828;6.466;2023-05-19T08:42:33;15.80;99.90
20376;DHT22;10347;51.828;6.466;2023-05-19T08:44:59;15.90;99.90
20376;DHT22;10347;51.828;6.466;2023-05-19T08:47:25;15.90;99.90
20376;DHT22;10347;51.828;6.466;2023-05-19T08:49:55;15.90;99.90
20376;DHT22;10347;51.828;6.466;2023-05-19T08:52:31;16.00;99.90
20376;DHT22;10347;51.828;6.466;2023-05-19T08:55:08;16.10;99.90
20376;DHT22;10347;51.828;6.466;2023-05-19T08:57:37;16.10;99.90
20376;DHT22;10347;51.828;6.466;2023-05-19T09:00:04;16.20;99.90
20376;DHT22;10347;51.828;6.466;2023-05-19T09:02:37;16.30;99.90
20376;DHT22;10347;51.828;6.466;2023-05-19T09:05:04;16.40;99.90
20376;DHT22;10347;51.828;6.466;2023-05-19T09:07:30;16.40;99.90
20376;DHT22;10347;51.828;6.466;2023-05-19T09:09:59;16.50;99.90
20376;DHT22;10347;51.828;6.466;2023-05-19T09:12:25;16.50;99.90
20376;DHT22;10347;51.828;6.466;2023-05-19T09:14:51;16.70;99.90
20376;DHT22;10347;51.828;6.466;2023-05-19T09:17:17;16.70;99.90
20376;DHT22;10347;51.828;6.466;2023-05-19T09:19:45;16.80;99.90
20376;DHT22;10347;51.828;6.466;2023-05-19T09:22:14;16.90;99.90
20376;DHT22;10347;51.828;6.466;2023-05-19T09:24:40;16.90;99.90
20376;DHT22;10347;51.828;6.466;2023-05-19T09:27:06;17.00;99.90
20376;DHT22;10347;51.828;6.466;2023-05-19T09:29:32;17.00;99.90
20376;DHT22;10347;51.828;6.466;2023-05-19T09:31:58;17.10;99.90
20376;DHT22;10347;51.828;6.466;2023-05-19T09:34:30;17.10;99.90
20376;DHT22;10347;51.828;6.466;2023-05-19T09:36:56;17.10;99.90
20376;DHT22;10347;51.828;6.466;2023-05-19T09:39:24;17.20;99.90
20376;DHT22;10347;51.828;6.466;2023-05-19T09:41:51;17.20;99.90
20376;DHT22;10347;51.828;6.466;2023-05-19T09:44:24;17.20;99.90
20376;DHT22;10347;51.828;6.466;2023-05-19T09:46:57;17.20;99.90
20376;DHT22;10347;51.828;6.466;2023-05-19T09:49:24;17.20;99.90
20376;DHT22;10347;51.828;6.466;2023-05-19T09:51:57;17.20;99.90
20376;DHT22;10347;51.828;6.466;2023-05-19T09:54:24;17.40;99.90
20376;DHT22;10347;51.828;6.466;2023-05-19T09:57:00;17.30;99.90
20376;DHT22;10347;51.828;6.466;2023-05-19T09:59:27;17.40;99.90
20376;DHT22;10347;51.828;6.466;2023-05-19T10:01:59;17.40;99.90
20376;DHT22;10347;51.828;6.466;2023-05-19T10:04:28;17.50;99.90
20376;DHT22;10347;51.828;6.466;2023-05-19T10:06:55;17.60;99.90
20376;DHT22;10347;51.828;6.466;2023-05-19T10:09:25;17.60;99.90
20376;DHT22;10347;51.828;6.466;2023-05-19T10:11:52;17.70;99.90
20376;DHT22;10347;51.828;6.466;2023-05-19T10:14:28;17.70;99.90
20376;DHT22;10347;51.828;6.466;2023-05-19T10:16:58;17.80;99.90
20376;DHT22;10347;51.828;6.466;2023-05-19T10:19:25;17.80;99.90
20376;DHT22;10347;51.828;6.466;2023-05-19T10:21:51;17.90;99.90
20376;DHT22;10347;51.828;6.466;2023-05-19T10:24:17;18.00;99.90
20376;DHT22;10347;51.828;6.466;2023-05-19T10:26:47;18.00;99.90
20376;DHT22;10347;51.828;6.466;2023-05-19T10:29:18;18.00;99.90
20376;DHT22;10347;51.828;6.466;2023-05-19T10:31:45;18.10;99.90
20376;DHT22;10347;51.828;6.466;2023-05-19T10:37:01;18.30;99.90
20376;DHT22;10347;51.828;6.466;2023-05-19T10:39:33;18.30;99.90
20376;DHT22;10347;51.828;6.466;2023-05-19T10:42:27;18.30;99.90
20376;DHT22;10347;51.828;6.466;2023-05-19T10:45:17;18.30;99.90
20376;DHT22;10347;51.828;6.466;2023-05-19T10:47:44;18.40;99.90
20376;DHT22;10347;51.828;6.466;2023-05-19T10:50:10;18.40;99.90
20376;DHT22;10347;51.828;6.466;2023-05-19T10:52:37;18.50;99.90
20376;DHT22;10347;51.828;6.466;2023-05-19T10:55:06;18.60;99.90
20376;DHT22;10347;51.828;6.466;2023-05-19T10:57:33;18.60;99.90
20376;DHT22;10347;51.828;6.466;2023-05-19T11:00:02;18.70;99.90
20376;DHT22;10347;51.828;6.466;2023-05-19T11:02:36;18.80;99.90
20376;DHT22;10347;51.828;6.466;2023-05-19T11:05:13;18.80;99.90
20376;DHT22;10347;51.828;6.466;2023-05-19T11:07:41;18.90;99.70
20376;DHT22;10347;51.828;6.466;2023-05-19T11:10:09;18.90;99.90
20376;DHT22;10347;51.828;6.466;2023-05-19T11:12:43;18.80;99.60
20376;DHT22;10347;51.828;6.466;2023-05-19T11:15:13;18.80;99.00
20376;DHT22;10347;51.828;6.466;2023-05-19T11:17:40;18.80;99.90
20376;DHT22;10347;51.828;6.466;2023-05-19T11:20:08;18.90;99.30
20376;DHT22;10347;51.828;6.466;2023-05-19T11:22:37;19.00;99.40
20376;DHT22;10347;51.828;6.466;2023-05-19T11:25:04;19.00;99.90
20376;DHT22;10347;51.828;6.466;2023-05-19T11:27:32;19.10;99.40
20376;DHT22;10347;51.828;6.466;2023-05-19T11:32:35;19.10;98.00
20376;DHT22;10347;51.828;6.466;2023-05-19T11:35:09;19.10;97.20
20376;DHT22;10347;51.828;6.466;2023-05-19T11:37:35;19.10;97.70
20376;DHT22;10347;51.828;6.466;2023-05-19T11:40:02;19.10;97.70
20376;DHT22;10347;51.828;6.466;2023-05-19T11:42:31;19.10;97.80
20376;DHT22;10347;51.828;6.466;2023-05-19T11:44:56;19.20;98.60
20376;DHT22;10347;51.828;6.466;2023-05-19T11:47:22;19.30;98.60
20376;DHT22;10347;51.828;6.466;2023-05-19T11:49:48;19.30;97.60
20376;DHT22;10347;51.828;6.466;2023-05-19T11:52:16;19.40;98.20
20376;DHT22;10347;51.828;6.466;2023-05-19T11:54:41;19.50;98.10
20376;DHT22;10347;51.828;6.466;2023-05-19T11:57:08;19.50;97.10
20376;DHT22;10347;51.828;6.466;2023-05-19T11:59:36;19.50;96.60
20376;DHT22;10347;51.828;6.466;2023-05-19T12:04:43;19.60;97.00
20376;DHT22;10347;51.828;6.466;2023-05-19T12:07:13;19.60;96.30
20376;DHT22;10347;51.828;6.466;2023-05-19T12:09:42;19.70;95.70
20376;DHT22;10347;51.828;6.466;2023-05-19T12:12:08;19.60;95.40
20376;DHT22;10347;51.828;6.466;2023-05-19T12:14:34;19.70;96.60
20376;DHT22;10347;51.828;6.466;2023-05-19T12:17:12;19.80;95.70
20376;DHT22;10347;51.828;6.466;2023-05-19T12:19:39;19.80;94.80
20376;DHT22;10347;51.828;6.466;2023-05-19T12:22:06;19.80;95.50
20376;DHT22;10347;51.828;6.466;2023-05-19T12:24:35;19.90;94.80
20376;DHT22;10347;51.828;6.466;2023-05-19T12:27:22;19.90;94.40
20376;DHT22;10347;51.828;6.466;2023-05-19T12:29:53;19.80;94.30
20376;DHT22;10347;51.828;6.466;2023-05-19T12:32:27;19.70;94.40
20376;DHT22;10347;51.828;6.466;2023-05-19T12:34:56;19.90;93.20
20376;DHT22;10347;51.828;6.466;2023-05-19T12:37:25;19.90;93.20
20376;DHT22;10347;51.828;6.466;2023-05-19T12:39:52;19.90;94.50
20376;DHT22;10347;51.828;6.466;2023-05-19T12:42:17;20.00;94.70
20376;DHT22;10347;51.828;6.466;2023-05-19T12:44:46;20.10;94.70
20376;DHT22;10347;51.828;6.466;2023-05-19T12:47:13;20.10;95.20
20376;DHT22;10347;51.828;6.466;2023-05-19T12:52:32;20.30;93.60
20376;DHT22;10347;51.828;6.466;2023-05-19T12:55:04;20.20;93.70
20376;DHT22;10347;51.828;6.466;2023-05-19T12:57:34;20.30;94.40
20376;DHT22;10347;51.828;6.466;2023-05-19T13:02:26;20.30;94.40
20376;DHT22;10347;51.828;6.466;2023-05-19T13:04:52;20.30;93.90
20376;DHT22;10347;51.828;6.466;2023-05-19T13:07:19;20.30;94.00
20376;DHT22;10347;51.828;6.466;2023-05-19T13:09:45;20.30;93.20
20376;DHT22;10347;51.828;6.466;2023-05-19T13:12:10;20.20;93.10
20376;DHT22;10347;51.828;6.466;2023-05-19T13:14:36;20.20;92.40
20376;DHT22;10347;51.828;6.466;2023-05-19T13:17:02;20.20;93.40
20376;DHT22;10347;51.828;6.466;2023-05-19T13:19:27;20.30;93.60
20376;DHT22;10347;51.828;6.466;2023-05-19T13:21:53;20.30;93.30
20376;DHT22;10347;51.828;6.466;2023-05-19T13:24:19;20.40;93.10
20376;DHT22;10347;51.828;6.466;2023-05-19T13:26:44;20.50;93.20
20376;DHT22;10347;51.828;6.466;2023-05-19T13:29:10;20.40;92.70
20376;DHT22;10347;51.828;6.466;2023-05-19T13:31:36;20.50;93.00
20376;DHT22;10347;51.828;6.466;2023-05-19T13:34:01;20.50;92.50
20376;DHT22;10347;51.828;6.466;2023-05-19T13:36:27;20.50;92.60
20376;DHT22;10347;51.828;6.466;2023-05-19T13:38:53;20.60;92.40
20376;DHT22;10347;51.828;6.466;2023-05-19T13:41:23;20.60;92.60
20376;DHT22;10347;51.828;6.466;2023-05-19T13:43:51;20.60;92.30
20376;DHT22;10347;51.828;6.466;2023-05-19T13:46:16;20.60;91.50
20376;DHT22;10347;51.828;6.466;2023-05-19T13:48:42;20.60;91.90
20376;DHT22;10347;51.828;6.466;2023-05-19T13:51:07;20.60;91.10
20376;DHT22;10347;51.828;6.466;2023-05-19T13:53:33;20.60;90.60
20376;DHT22;10347;51.828;6.466;2023-05-19T13:55:59;20.50;90.90
20376;DHT22;10347;51.828;6.466;2023-05-19T13:58:25;20.50;90.90
20376;DHT22;10347;51.828;6.466;2023-05-19T14:00:50;20.60;90.80
20376;DHT22;10347;51.828;6.466;2023-05-19T14:03:19;20.50;90.40
20376;DHT22;10347;51.828;6.466;2023-05-19T14:05:47;20.60;91.10
20376;DHT22;10347;51.828;6.466;2023-05-19T14:08:13;20.60;90.80
20376;DHT22;10347;51.828;6.466;2023-05-19T14:10:38;20.70;90.30
20376;DHT22;10347;51.828;6.466;2023-05-19T14:13:04;20.70;90.40
20376;DHT22;10347;51.828;6.466;2023-05-19T14:15:30;20.70;90.00
20376;DHT22;10347;51.828;6.466;2023-05-19T14:17:58;20.70;90.20
20376;DHT22;10347;51.828;6.466;2023-05-19T14:20:24;20.70;90.10
20376;DHT22;10347;51.828;6.466;2023-05-19T14:22:49;20.70;90.00
20376;DHT22;10347;51.828;6.466;2023-05-19T14:25:15;20.70;88.30
20376;DHT22;10347;51.828;6.466;2023-05-19T14:27:41;20.80;88.90
20376;DHT22;10347;51.828;6.466;2023-05-19T14:30:07;20.70;89.70
20376;DHT22;10347;51.828;6.466;2023-05-19T14:32:32;20.80;87.90
20376;DHT22;10347;51.828;6.466;2023-05-19T14:34:58;20.80;88.50
20376;DHT22;10347;51.828;6.466;2023-05-19T14:37:23;20.90;88.90
20376;DHT22;10347;51.828;6.466;2023-05-19T14:39:53;20.90;88.00
20376;DHT22;10347;51.828;6.466;2023-05-19T14:42:18;20.90;86.20
20376;DHT22;10347;51.828;6.466;2023-05-19T14:44:44;20.90;86.90
20376;DHT22;10347;51.828;6.466;2023-05-19T14:47:10;20.90;87.40
20376;DHT22;10347;51.828;6.466;2023-05-19T14:49:36;21.00;86.00
20376;DHT22;10347;51.828;6.466;2023-05-19T14:52:02;21.00;85.80
20376;DHT22;10347;51.828;6.466;2023-05-19T14:54:28;21.00;87.20
20376;DHT22;10347;51.828;6.466;2023-05-19T14:56:53;21.00;87.90
20376;DHT22;10347;51.828;6.466;2023-05-19T14:59:19;21.10;86.50
20376;DHT22;10347;51.828;6.466;2023-05-19T15:01:45;21.10;85.70
20376;DHT22;10347;51.828;6.466;2023-05-19T15:04:11;21.20;87.00
20376;DHT22;10347;51.828;6.466;2023-05-19T15:06:36;21.20;84.80
20376;DHT22;10347;51.828;6.466;2023-05-19T15:09:02;21.30;84.60
20376;DHT22;10347;51.828;6.466;2023-05-19T15:11:28;21.20;85.40
20376;DHT22;10347;51.828;6.466;2023-05-19T15:13:54;21.20;85.70
20376;DHT22;10347;51.828;6.466;2023-05-19T15:16:19;21.20;85.10
20376;DHT22;10347;51.828;6.466;2023-05-19T15:18:45;21.20;84.20
20376;DHT22;10347;51.828;6.466;2023-05-19T15:21:11;21.20;84.00
20376;DHT22;10347;51.828;6.466;2023-05-19T15:23:36;21.20;83.30
20376;DHT22;10347;51.828;6.466;2023-05-19T15:26:02;21.20;83.90
20376;DHT22;10347;51.828;6.466;2023-05-19T15:28:27;21.20;83.40
20376;DHT22;10347;51.828;6.466;2023-05-19T15:30:53;21.20;83.60
20376;DHT22;10347;51.828;6.466;2023-05-19T15:33:19;21.20;83.80
20376;DHT22;10347;51.828;6.466;2023-05-19T15:35:44;21.30;82.80
20376;DHT22;10347;51.828;6.466;2023-05-19T15:38:11;21.20;83.40
20376;DHT22;10347;51.828;6.466;2023-05-19T15:40:40;21.30;82.80
20376;DHT22;10347;51.828;6.466;2023-05-19T15:43:06;21.20;82.70
20376;DHT22;10347;51.828;6.466;2023-05-19T15:45:31;21.30;81.50
20376;DHT22;10347;51.828;6.466;2023-05-19T15:47:57;21.30;82.00
20376;DHT22;10347;51.828;6.466;2023-05-19T15:50:22;21.30;82.40
20376;DHT22;10347;51.828;6.466;2023-05-19T15:52:50;21.30;82.60